Salt Wells, Nevada
Current Conditions -  °F | °C
As of 1:56 PM on Saturday 25 Oct 2014 (Local Time) from KNFL Reporting Station
Few Clouds Few Clouds  
Wind Chill: 26°   Ceiling: Unl
Heat Index: 26°   Visibility: 10mi
Dew Point: -11°   Wind: 24mph
Humidity: 8%   Direction: 220°SW
Pressure: 29.87"   Gusts: 36mph
Location:  39.5809°N, 118.333°W
Report Text: KNFL 252056Z 22021G31KT 10SM FEW100 FEW200 26/M11 A2987 RMK AO2 PK WND 25032/2036 SLP090 BLDU VC S-SW T02561106 58012
Loading
Personal Weather Stations






























Interactive Weather Map
Tropical Storm Tracking
New forecast layout! Learn more

10-Day Weather Forecast

Advertisements
Track Severe Weather on mobile